sensor_id;sensor_type;location;lat;lon;timestamp;pressure;altitude;pressure_sealevel;temperature;humidity
72689;BME280;61053;52.166;4.506;2022-08-21T00:02:27;101726.47;;;18.29;71.81
72689;BME280;61053;52.166;4.506;2022-08-21T00:04:54;101721.47;;;18.25;72.09
72689;BME280;61053;52.166;4.506;2022-08-21T00:07:20;101721.16;;;18.18;72.38
72689;BME280;61053;52.166;4.506;2022-08-21T00:09:46;101714.31;;;18.24;72.24
72689;BME280;61053;52.166;4.506;2022-08-21T00:12:13;101722.41;;;18.14;72.96
72689;BME280;61053;52.166;4.506;2022-08-21T00:14:39;101719.47;;;18.27;72.44
72689;BME280;61053;52.166;4.506;2022-08-21T00:17:05;101720.41;;;18.16;72.87
72689;BME280;61053;52.166;4.506;2022-08-21T00:19:34;101720.41;;;18.16;72.61
72689;BME280;61053;52.166;4.506;2022-08-21T00:21:59;101717.47;;;18.19;72.90
72689;BME280;61053;52.166;4.506;2022-08-21T00:24:26;101707.75;;;18.17;72.56
72689;BME280;61053;52.166;4.506;2022-08-21T00:26:53;101717.97;;;18.03;73.02
72689;BME280;61053;52.166;4.506;2022-08-21T00:29:19;101715.56;;;18.10;73.28
72689;BME280;61053;52.166;4.506;2022-08-21T00:31:45;101707.59;;;18.08;73.24
72689;BME280;61053;52.166;4.506;2022-08-21T00:34:12;101706.97;;;17.95;74.05
72689;BME280;61053;52.166;4.506;2022-08-21T00:36:40;101719.34;;;17.98;74.01
72689;BME280;61053;52.166;4.506;2022-08-21T00:39:07;101716.75;;;17.86;74.30
72689;BME280;61053;52.166;4.506;2022-08-21T00:41:36;101711.09;;;17.99;74.13
72689;BME280;61053;52.166;4.506;2022-08-21T00:44:06;101710.06;;;17.90;74.28
72689;BME280;61053;52.166;4.506;2022-08-21T00:46:36;101711.91;;;17.90;74.40
72689;BME280;61053;52.166;4.506;2022-08-21T00:49:05;101711.03;;;18.10;73.48
72689;BME280;61053;52.166;4.506;2022-08-21T00:51:37;101698.63;;;18.08;73.68
72689;BME280;61053;52.166;4.506;2022-08-21T00:54:11;101708.28;;;18.01;73.82
72689;BME280;61053;52.166;4.506;2022-08-21T00:56:38;101711.22;;;17.98;73.91
72689;BME280;61053;52.166;4.506;2022-08-21T00:59:05;101700.56;;;17.96;74.20
72689;BME280;61053;52.166;4.506;2022-08-21T01:01:33;101701.16;;;18.00;74.23
72689;BME280;61053;52.166;4.506;2022-08-21T01:03:59;101696.03;;;17.76;75.02
72689;BME280;61053;52.166;4.506;2022-08-21T01:06:26;101704.94;;;17.66;75.46
72689;BME280;61053;52.166;4.506;2022-08-21T01:08:52;101700.78;;;17.83;74.97
72689;BME280;61053;52.166;4.506;2022-08-21T01:11:18;101693.59;;;17.72;74.98
72689;BME280;61053;52.166;4.506;2022-08-21T01:13:45;101695.25;;;17.64;75.38
72689;BME280;61053;52.166;4.506;2022-08-21T01:16:14;101694.78;;;17.80;75.04
72689;BME280;61053;52.166;4.506;2022-08-21T01:18:44;101696.31;;;17.72;75.53
72689;BME280;61053;52.166;4.506;2022-08-21T01:21:23;101701.50;;;17.85;74.73
72689;BME280;61053;52.166;4.506;2022-08-21T01:23:54;101703.28;;;17.75;75.28
72689;BME280;61053;52.166;4.506;2022-08-21T01:26:27;101705.66;;;17.68;75.24
72689;BME280;61053;52.166;4.506;2022-08-21T01:29:00;101703.81;;;17.69;75.92
72689;BME280;61053;52.166;4.506;2022-08-21T01:31:31;101704.25;;;17.74;75.64
72689;BME280;61053;52.166;4.506;2022-08-21T01:33:58;101698.28;;;17.49;76.80
72689;BME280;61053;52.166;4.506;2022-08-21T01:36:25;101699.81;;;17.63;75.93
72689;BME280;61053;52.166;4.506;2022-08-21T01:38:51;101699.69;;;17.75;75.81
72689;BME280;61053;52.166;4.506;2022-08-21T01:41:17;101702.09;;;17.68;76.30
72689;BME280;61053;52.166;4.506;2022-08-21T01:43:43;101691.69;;;17.63;76.40
72689;BME280;61053;52.166;4.506;2022-08-21T01:46:11;101693.28;;;17.66;76.02
72689;BME280;61053;52.166;4.506;2022-08-21T01:48:37;101692.03;;;17.70;75.67
72689;BME280;61053;52.166;4.506;2022-08-21T01:51:04;101692.16;;;17.68;75.61
72689;BME280;61053;52.166;4.506;2022-08-21T01:53:31;101696.31;;;17.30;76.92
72689;BME280;61053;52.166;4.506;2022-08-21T01:56:00;101684.84;;;17.38;76.59
72689;BME280;61053;52.166;4.506;2022-08-21T01:58:27;101687.66;;;17.58;75.61
72689;BME280;61053;52.166;4.506;2022-08-21T02:00:53;101688.66;;;17.57;75.51
72689;BME280;61053;52.166;4.506;2022-08-21T02:03:19;101681.75;;;17.22;76.64
72689;BME280;61053;52.166;4.506;2022-08-21T02:05:44;101675.56;;;17.31;76.36
72689;BME280;61053;52.166;4.506;2022-08-21T02:08:10;101668.13;;;17.23;76.58
72689;BME280;61053;52.166;4.506;2022-08-21T02:10:36;101670.63;;;17.36;75.63
72689;BME280;61053;52.166;4.506;2022-08-21T02:13:03;101670.50;;;17.38;76.22
72689;BME280;61053;52.166;4.506;2022-08-21T02:15:29;101669.66;;;17.37;76.16
72689;BME280;61053;52.166;4.506;2022-08-21T02:17:59;101669.78;;;17.36;75.79
72689;BME280;61053;52.166;4.506;2022-08-21T02:20:30;101673.72;;;17.32;75.58
72689;BME280;61053;52.166;4.506;2022-08-21T02:23:00;101665.56;;;17.43;75.50
72689;BME280;61053;52.166;4.506;2022-08-21T02:25:26;101670.50;;;17.38;75.32
72689;BME280;61053;52.166;4.506;2022-08-21T02:27:53;101677.66;;;17.27;75.87
72689;BME280;61053;52.166;4.506;2022-08-21T02:30:25;101662.97;;;17.41;74.91
72689;BME280;61053;52.166;4.506;2022-08-21T02:32:53;101670.34;;;17.39;74.85
72689;BME280;61053;52.166;4.506;2022-08-21T02:35:20;101672.16;;;17.29;75.50
72689;BME280;61053;52.166;4.506;2022-08-21T02:37:51;101662.06;;;17.31;75.52
72689;BME280;61053;52.166;4.506;2022-08-21T02:40:21;101667.47;;;17.31;75.20
72689;BME280;61053;52.166;4.506;2022-08-21T02:42:51;101664.66;;;17.33;75.39
72689;BME280;61053;52.166;4.506;2022-08-21T02:45:17;101656.53;;;16.91;76.44
72689;BME280;61053;52.166;4.506;2022-08-21T02:47:55;101661.41;;;17.18;75.71
72689;BME280;61053;52.166;4.506;2022-08-21T02:50:31;101663.31;;;17.06;75.91
72689;BME280;61053;52.166;4.506;2022-08-21T02:52:58;101660.25;;;16.99;76.39
72689;BME280;61053;52.166;4.506;2022-08-21T02:55:28;101655.44;;;17.14;75.57
72689;BME280;61053;52.166;4.506;2022-08-21T02:57:57;101657.41;;;17.12;75.46
72689;BME280;61053;52.166;4.506;2022-08-21T03:00:25;101657.63;;;17.30;74.93
72689;BME280;61053;52.166;4.506;2022-08-21T03:02:52;101657.19;;;17.04;76.03
72689;BME280;61053;52.166;4.506;2022-08-21T03:05:18;101651.63;;;16.84;76.62
72689;BME280;61053;52.166;4.506;2022-08-21T03:07:45;101658.22;;;16.92;76.79
72689;BME280;61053;52.166;4.506;2022-08-21T03:10:15;101658.56;;;16.98;76.06
72689;BME280;61053;52.166;4.506;2022-08-21T03:12:41;101655.22;;;17.06;76.05
72689;BME280;61053;52.166;4.506;2022-08-21T03:15:10;101646.13;;;17.07;76.21
72689;BME280;61053;52.166;4.506;2022-08-21T03:17:37;101645.41;;;17.26;75.08
72689;BME280;61053;52.166;4.506;2022-08-21T03:20:05;101645.97;;;16.87;77.15
72689;BME280;61053;52.166;4.506;2022-08-21T03:22:32;101640.91;;;16.94;76.76
72689;BME280;61053;52.166;4.506;2022-08-21T03:24:59;101631.28;;;16.69;77.61
72689;BME280;61053;52.166;4.506;2022-08-21T03:27:26;101636.91;;;16.77;77.19
72689;BME280;61053;52.166;4.506;2022-08-21T03:29:54;101634.66;;;16.94;76.42
72689;BME280;61053;52.166;4.506;2022-08-21T03:32:20;101635.81;;;17.12;75.87
72689;BME280;61053;52.166;4.506;2022-08-21T03:34:46;101629.72;;;16.99;76.30
72689;BME280;61053;52.166;4.506;2022-08-21T03:37:13;101629.72;;;16.99;76.62
72689;BME280;61053;52.166;4.506;2022-08-21T03:39:39;101631.16;;;16.82;76.73
72689;BME280;61053;52.166;4.506;2022-08-21T03:42:05;101625.81;;;16.59;78.15
72689;BME280;61053;52.166;4.506;2022-08-21T03:44:32;101623.06;;;16.82;77.47
72689;BME280;61053;52.166;4.506;2022-08-21T03:46:58;101629.53;;;16.91;76.81
72689;BME280;61053;52.166;4.506;2022-08-21T03:49:24;101625.44;;;16.64;78.11
72689;BME280;61053;52.166;4.506;2022-08-21T03:51:50;101624.78;;;16.51;78.80
72689;BME280;61053;52.166;4.506;2022-08-21T03:54:16;101626.03;;;16.79;77.64
72689;BME280;61053;52.166;4.506;2022-08-21T03:56:41;101624.09;;;16.70;78.46
72689;BME280;61053;52.166;4.506;2022-08-21T03:59:07;101623.53;;;16.87;77.14
72689;BME280;61053;52.166;4.506;2022-08-21T04:01:33;101624.97;;;16.59;77.97
72689;BME280;61053;52.166;4.506;2022-08-21T04:03:59;101617.97;;;16.67;78.34
72689;BME280;61053;52.166;4.506;2022-08-21T04:06:26;101626.59;;;16.50;78.46
72689;BME280;61053;52.166;4.506;2022-08-21T04:08:52;101630.78;;;16.75;77.45
72689;BME280;61053;52.166;4.506;2022-08-21T04:11:18;101622.63;;;16.65;77.74
72689;BME280;61053;52.166;4.506;2022-08-21T04:13:46;101627.66;;;16.59;78.30
72689;BME280;61053;52.166;4.506;2022-08-21T04:16:13;101629.50;;;16.58;78.26
72689;BME280;61053;52.166;4.506;2022-08-21T04:18:39;101619.31;;;16.62;78.85
72689;BME280;61053;52.166;4.506;2022-08-21T04:21:05;101622.47;;;16.35;79.42
72689;BME280;61053;52.166;4.506;2022-08-21T04:23:35;101641.56;;;16.43;78.95
72689;BME280;61053;52.166;4.506;2022-08-21T04:26:02;101626.66;;;16.39;79.60
72689;BME280;61053;52.166;4.506;2022-08-21T04:28:28;101636.94;;;16.66;78.14
72689;BME280;61053;52.166;4.506;2022-08-21T04:30:54;101646.16;;;16.63;78.19
72689;BME280;61053;52.166;4.506;2022-08-21T04:33:21;101650.50;;;16.43;79.03
72689;BME280;61053;52.166;4.506;2022-08-21T04:35:47;101643.84;;;16.59;78.56
72689;BME280;61053;52.166;4.506;2022-08-21T04:38:14;101645.03;;;16.66;78.25
72689;BME280;61053;52.166;4.506;2022-08-21T04:40:40;101648.31;;;16.81;77.83
72689;BME280;61053;52.166;4.506;2022-08-21T04:43:08;101652.38;;;16.86;77.99
72689;BME280;61053;52.166;4.506;2022-08-21T04:45:38;101646.03;;;16.65;78.17
72689;BME280;61053;52.166;4.506;2022-08-21T04:48:08;101651.59;;;16.52;78.65
72689;BME280;61053;52.166;4.506;2022-08-21T04:50:36;101651.00;;;16.49;78.69
72689;BME280;61053;52.166;4.506;2022-08-21T04:53:13;101653.53;;;16.18;80.16
72689;BME280;61053;52.166;4.506;2022-08-21T04:55:57;101653.59;;;16.39;79.96
72689;BME280;61053;52.166;4.506;2022-08-21T04:58:28;101661.53;;;16.52;78.77
72689;BME280;61053;52.166;4.506;2022-08-21T05:00:56;101661.41;;;16.53;79.16
72689;BME280;61053;52.166;4.506;2022-08-21T05:03:23;101662.38;;;16.52;79.21
72689;BME280;61053;52.166;4.506;2022-08-21T05:05:49;101660.31;;;16.44;79.67
72689;BME280;61053;52.166;4.506;2022-08-21T05:08:18;101661.53;;;16.40;80.05
72689;BME280;61053;52.166;4.506;2022-08-21T05:10:47;101656.06;;;16.31;80.40
72689;BME280;61053;52.166;4.506;2022-08-21T05:13:13;101649.44;;;16.23;80.82
72689;BME280;61053;52.166;4.506;2022-08-21T05:15:39;101659.03;;;16.16;81.26
72689;BME280;61053;52.166;4.506;2022-08-21T05:18:06;101661.16;;;16.45;79.74
72689;BME280;61053;52.166;4.506;2022-08-21T05:20:32;101656.47;;;16.58;79.76
72689;BME280;61053;52.166;4.506;2022-08-21T05:23:00;101651.22;;;16.45;80.14
72689;BME280;61053;52.166;4.506;2022-08-21T05:25:26;101654.91;;;16.56;80.12
72689;BME280;61053;52.166;4.506;2022-08-21T05:27:52;101660.13;;;16.68;79.86
72689;BME280;61053;52.166;4.506;2022-08-21T05:30:19;101649.81;;;16.30;81.16
72689;BME280;61053;52.166;4.506;2022-08-21T05:32:46;101651.94;;;16.59;80.70
72689;BME280;61053;52.166;4.506;2022-08-21T05:35:13;101647.03;;;16.53;81.03
72689;BME280;61053;52.166;4.506;2022-08-21T05:37:38;101661.72;;;16.60;80.58
72689;BME280;61053;52.166;4.506;2022-08-21T05:40:05;101662.25;;;16.54;81.53
72689;BME280;61053;52.166;4.506;2022-08-21T05:42:32;101657.63;;;16.88;79.74
72689;BME280;61053;52.166;4.506;2022-08-21T05:44:58;101671.75;;;16.69;80.24
72689;BME280;61053;52.166;4.506;2022-08-21T05:47:24;101669.47;;;16.97;79.40
72689;BME280;61053;52.166;4.506;2022-08-21T05:49:49;101658.03;;;16.83;80.21
72689;BME280;61053;52.166;4.506;2022-08-21T05:52:19;101662.81;;;16.80;80.34
72689;BME280;61053;52.166;4.506;2022-08-21T05:54:45;101662.78;;;16.91;80.37
72689;BME280;61053;52.166;4.506;2022-08-21T05:57:11;101659.22;;;16.91;80.32
72689;BME280;61053;52.166;4.506;2022-08-21T05:59:36;101661.59;;;16.73;81.30
72689;BME280;61053;52.166;4.506;2022-08-21T06:02:03;101657.88;;;16.74;81.56
72689;BME280;61053;52.166;4.506;2022-08-21T06:04:29;101660.25;;;16.67;81.70
72689;BME280;61053;52.166;4.506;2022-08-21T06:06:54;101654.81;;;16.78;81.26
72689;BME280;61053;52.166;4.506;2022-08-21T06:09:20;101665.41;;;17.02;80.65
72689;BME280;61053;52.166;4.506;2022-08-21T06:11:47;101671.78;;;17.01;80.82
72689;BME280;61053;52.166;4.506;2022-08-21T06:14:15;101671.41;;;17.06;80.89
72689;BME280;61053;52.166;4.506;2022-08-21T06:16:42;101667.78;;;16.96;81.28
72689;BME280;61053;52.166;4.506;2022-08-21T06:19:07;101653.69;;;17.13;80.60
72689;BME280;61053;52.166;4.506;2022-08-21T06:21:33;101659.38;;;17.10;80.70
72689;BME280;61053;52.166;4.506;2022-08-21T06:23:58;101654.47;;;17.25;80.71
72689;BME280;61053;52.166;4.506;2022-08-21T06:26:24;101652.00;;;17.33;80.55
72689;BME280;61053;52.166;4.506;2022-08-21T06:28:50;101654.75;;;17.22;80.92
72689;BME280;61053;52.166;4.506;2022-08-21T06:31:22;101649.28;;;17.33;80.63
72689;BME280;61053;52.166;4.506;2022-08-21T06:33:51;101653.31;;;17.39;80.47
72689;BME280;61053;52.166;4.506;2022-08-21T06:36:17;101659.44;;;17.41;80.56
72689;BME280;61053;52.166;4.506;2022-08-21T06:38:44;101665.88;;;17.49;79.88
72689;BME280;61053;52.166;4.506;2022-08-21T06:41:10;101658.16;;;17.66;79.82
72689;BME280;61053;52.166;4.506;2022-08-21T06:43:36;101660.13;;;17.85;78.87
72689;BME280;61053;52.166;4.506;2022-08-21T06:46:02;101657.19;;;17.77;79.47
72689;BME280;61053;52.166;4.506;2022-08-21T06:48:27;101667.75;;;17.80;79.40
72689;BME280;61053;52.166;4.506;2022-08-21T06:50:54;101663.72;;;17.74;80.12
72689;BME280;61053;52.166;4.506;2022-08-21T06:53:21;101666.09;;;17.88;79.31
72689;BME280;61053;52.166;4.506;2022-08-21T06:55:47;101664.75;;;18.04;79.23
72689;BME280;61053;52.166;4.506;2022-08-21T06:58:14;101663.59;;;17.76;80.28
72689;BME280;61053;52.166;4.506;2022-08-21T07:00:45;101664.66;;;18.15;78.67
72689;BME280;61053;52.166;4.506;2022-08-21T07:03:19;101654.31;;;18.40;77.92
72689;BME280;61053;52.166;4.506;2022-08-21T07:05:51;101651.88;;;18.27;78.84
72689;BME280;61053;52.166;4.506;2022-08-21T07:08:17;101653.06;;;18.53;77.25
72689;BME280;61053;52.166;4.506;2022-08-21T07:10:42;101663.16;;;18.51;77.84
72689;BME280;61053;52.166;4.506;2022-08-21T07:13:08;101658.47;;;18.63;77.25
72689;BME280;61053;52.166;4.506;2022-08-21T07:15:34;101656.97;;;18.80;76.63
72689;BME280;61053;52.166;4.506;2022-08-21T07:18:01;101655.41;;;18.97;76.55
72689;BME280;61053;52.166;4.506;2022-08-21T07:20:28;101660.03;;;19.44;74.93
72689;BME280;61053;52.166;4.506;2022-08-21T07:22:56;101659.47;;;19.87;73.31
72689;BME280;61053;52.166;4.506;2022-08-21T07:25:25;101663.81;;;20.08;72.14
72689;BME280;61053;52.166;4.506;2022-08-21T07:27:51;101670.50;;;20.13;71.98
72689;BME280;61053;52.166;4.506;2022-08-21T07:30:16;101658.84;;;20.03;71.81
72689;BME280;61053;52.166;4.506;2022-08-21T07:32:42;101670.41;;;19.58;73.54
72689;BME280;61053;52.166;4.506;2022-08-21T07:35:09;101664.84;;;19.50;73.67
72689;BME280;61053;52.166;4.506;2022-08-21T07:37:35;101661.53;;;19.66;73.73
72689;BME280;61053;52.166;4.506;2022-08-21T07:40:01;101668.25;;;19.71;73.63
72689;BME280;61053;52.166;4.506;2022-08-21T07:42:26;101664.56;;;19.63;74.07
72689;BME280;61053;52.166;4.506;2022-08-21T07:44:52;101668.09;;;19.73;73.45
72689;BME280;61053;52.166;4.506;2022-08-21T07:47:19;101669.94;;;19.82;73.11
72689;BME280;61053;52.166;4.506;2022-08-21T07:49:45;101668.94;;;19.73;74.20
72689;BME280;61053;52.166;4.506;2022-08-21T07:52:11;101663.31;;;19.94;72.54
72689;BME280;61053;52.166;4.506;2022-08-21T07:54:36;101667.13;;;20.01;72.45
72689;BME280;61053;52.166;4.506;2022-08-21T07:57:02;101665.44;;;20.00;72.58
72689;BME280;61053;52.166;4.506;2022-08-21T07:59:28;101663.97;;;19.78;73.10
72689;BME280;61053;52.166;4.506;2022-08-21T08:01:54;101652.47;;;19.94;72.61
72689;BME280;61053;52.166;4.506;2022-08-21T08:04:19;101656.50;;;19.90;72.95
72689;BME280;61053;52.166;4.506;2022-08-21T08:06:45;101662.53;;;20.12;72.04
72689;BME280;61053;52.166;4.506;2022-08-21T08:09:11;101659.38;;;20.16;72.27
72689;BME280;61053;52.166;4.506;2022-08-21T08:11:38;101671.19;;;19.88;74.17
72689;BME280;61053;52.166;4.506;2022-08-21T08:14:09;101671.56;;;19.55;75.20
72689;BME280;61053;52.166;4.506;2022-08-21T08:16:35;101664.38;;;19.64;76.52
72689;BME280;61053;52.166;4.506;2022-08-21T08:19:00;101676.38;;;19.81;75.60
72689;BME280;61053;52.166;4.506;2022-08-21T08:21:26;101671.13;;;19.70;76.21
72689;BME280;61053;52.166;4.506;2022-08-21T08:23:53;101663.97;;;19.59;77.53
72689;BME280;61053;52.166;4.506;2022-08-21T08:26:19;101664.31;;;19.46;79.35
72689;BME280;61053;52.166;4.506;2022-08-21T08:28:45;101664.00;;;19.49;79.38
72689;BME280;61053;52.166;4.506;2022-08-21T08:31:13;101665.41;;;19.63;79.15
72689;BME280;61053;52.166;4.506;2022-08-21T08:33:39;101662.06;;;19.89;75.44
72689;BME280;61053;52.166;4.506;2022-08-21T08:36:16;101658.41;;;20.08;74.70
72689;BME280;61053;52.166;4.506;2022-08-21T08:38:46;101663.44;;;20.02;74.11
72689;BME280;61053;52.166;4.506;2022-08-21T08:41:16;101660.19;;;19.89;74.77
72689;BME280;61053;52.166;4.506;2022-08-21T08:43:51;101655.84;;;19.69;75.60
72689;BME280;61053;52.166;4.506;2022-08-21T08:46:31;101662.44;;;19.47;77.34
72689;BME280;61053;52.166;4.506;2022-08-21T08:52:00;101649.91;;;19.93;73.97
72689;BME280;61053;52.166;4.506;2022-08-21T08:54:33;101650.06;;;20.19;72.18
72689;BME280;61053;52.166;4.506;2022-08-21T08:57:10;101655.81;;;20.34;71.13
72689;BME280;61053;52.166;4.506;2022-08-21T08:59:52;101649.81;;;20.40;71.16
72689;BME280;61053;52.166;4.506;2022-08-21T09:02:21;101646.63;;;20.44;70.82
72689;BME280;61053;52.166;4.506;2022-08-21T09:04:53;101652.84;;;20.55;71.18
72689;BME280;61053;52.166;4.506;2022-08-21T09:07:45;101655.53;;;20.55;71.08
72689;BME280;61053;52.166;4.506;2022-08-21T09:13:36;101657.16;;;20.93;65.31
72689;BME280;61053;52.166;4.506;2022-08-21T09:16:20;101656.75;;;21.32;66.79
72689;BME280;61053;52.166;4.506;2022-08-21T09:19:22;101661.94;;;21.61;65.10
72689;BME280;61053;52.166;4.506;2022-08-21T09:27:36;101661.16;;;21.77;60.87
72689;BME280;61053;52.166;4.506;2022-08-21T09:30:04;101666.81;;;21.84;60.50
72689;BME280;61053;52.166;4.506;2022-08-21T09:32:32;101660.56;;;21.91;60.43
72689;BME280;61053;52.166;4.506;2022-08-21T09:35:20;101656.47;;;21.87;60.25
72689;BME280;61053;52.166;4.506;2022-08-21T09:37:50;101650.91;;;21.97;61.71
72689;BME280;61053;52.166;4.506;2022-08-21T09:40:36;101658.78;;;22.17;60.56
72689;BME280;61053;52.166;4.506;2022-08-21T09:45:38;101655.47;;;22.31;60.82
72689;BME280;61053;52.166;4.506;2022-08-21T09:48:25;101660.78;;;22.41;56.88
72689;BME280;61053;52.166;4.506;2022-08-21T09:50:52;101647.38;;;22.55;57.81
72689;BME280;61053;52.166;4.506;2022-08-21T09:53:22;101659.00;;;21.89;58.17
72689;BME280;61053;52.166;4.506;2022-08-21T09:55:56;101659.41;;;21.68;58.12
72689;BME280;61053;52.166;4.506;2022-08-21T09:58:48;101650.56;;;22.00;59.09
72689;BME280;61053;52.166;4.506;2022-08-21T10:01:22;101655.31;;;21.98;57.90
72689;BME280;61053;52.166;4.506;2022-08-21T10:04:02;101646.31;;;22.40;57.07
72689;BME280;61053;52.166;4.506;2022-08-21T10:06:29;101637.69;;;22.53;57.23
72689;BME280;61053;52.166;4.506;2022-08-21T10:09:06;101638.69;;;22.68;55.40
72689;BME280;61053;52.166;4.506;2022-08-21T10:11:33;101650.22;;;22.29;56.61
72689;BME280;61053;52.166;4.506;2022-08-21T10:14:14;101638.00;;;22.58;55.52
72689;BME280;61053;52.166;4.506;2022-08-21T10:17:01;101643.50;;;22.99;54.63
72689;BME280;61053;52.166;4.506;2022-08-21T10:22:41;101661.28;;;22.36;57.75
72689;BME280;61053;52.166;4.506;2022-08-21T10:28:07;101649.50;;;23.27;56.13
72689;BME280;61053;52.166;4.506;2022-08-21T10:30:57;101649.44;;;23.52;54.76
72689;BME280;61053;52.166;4.506;2022-08-21T10:40:10;101644.75;;;24.33;52.67
72689;BME280;61053;52.166;4.506;2022-08-21T10:46:24;101644.75;;;24.33;53.27
72689;BME280;61053;52.166;4.506;2022-08-21T10:55:17;101653.34;;;24.53;51.94
72689;BME280;61053;52.166;4.506;2022-08-21T10:58:05;101659.22;;;25.11;50.05
72689;BME280;61053;52.166;4.506;2022-08-21T11:00:46;101655.00;;;25.61;49.21
72689;BME280;61053;52.166;4.506;2022-08-21T11:03:29;101655.69;;;24.25;52.60
72689;BME280;61053;52.166;4.506;2022-08-21T11:08:45;101675.94;;;25.39;49.88
72689;BME280;61053;52.166;4.506;2022-08-21T11:14:03;101671.69;;;25.66;46.92
72689;BME280;61053;52.166;4.506;2022-08-21T11:16:46;101669.25;;;25.56;47.82
72689;BME280;61053;52.166;4.506;2022-08-21T11:19:31;101667.84;;;25.60;47.80
72689;BME280;61053;52.166;4.506;2022-08-21T11:22:26;101674.19;;;26.05;48.05
72689;BME280;61053;52.166;4.506;2022-08-21T11:25:06;101676.41;;;26.46;45.82
72689;BME280;61053;52.166;4.506;2022-08-21T11:30:58;101669.03;;;29.12;41.35
72689;BME280;61053;52.166;4.506;2022-08-21T11:36:56;101669.94;;;35.30;30.61
72689;BME280;61053;52.166;4.506;2022-08-21T11:39:33;101672.66;;;32.50;32.76
72689;BME280;61053;52.166;4.506;2022-08-21T11:42:30;101684.81;;;30.10;37.88
72689;BME280;61053;52.166;4.506;2022-08-21T11:45:31;101672.81;;;32.18;34.74
72689;BME280;61053;52.166;4.506;2022-08-21T11:48:29;101662.41;;;33.47;32.57
72689;BME280;61053;52.166;4.506;2022-08-21T11:51:32;101658.91;;;32.25;34.15
72689;BME280;61053;52.166;4.506;2022-08-21T11:56:38;101672.94;;;28.50;41.49
72689;BME280;61053;52.166;4.506;2022-08-21T11:59:18;101666.47;;;28.91;41.61
72689;BME280;61053;52.166;4.506;2022-08-21T12:01:50;101673.06;;;29.16;40.29
72689;BME280;61053;52.166;4.506;2022-08-21T12:04:31;101669.19;;;28.77;40.27
72689;BME280;61053;52.166;4.506;2022-08-21T12:07:15;101673.03;;;28.22;42.17
72689;BME280;61053;52.166;4.506;2022-08-21T12:09:56;101669.75;;;30.96;38.06
72689;BME280;61053;52.166;4.506;2022-08-21T12:12:33;101667.44;;;33.14;32.82
72689;BME280;61053;52.166;4.506;2022-08-21T12:15:14;101665.38;;;32.01;34.44
72689;BME280;61053;52.166;4.506;2022-08-21T12:18:01;101670.50;;;30.40;37.40
72689;BME280;61053;52.166;4.506;2022-08-21T12:26:01;101674.06;;;28.69;40.29
72689;BME280;61053;52.166;4.506;2022-08-21T12:28:36;101667.75;;;29.55;39.46
72689;BME280;61053;52.166;4.506;2022-08-21T12:31:02;101673.50;;;29.46;39.49
72689;BME280;61053;52.166;4.506;2022-08-21T12:33:34;101673.81;;;30.94;37.63
72689;BME280;61053;52.166;4.506;2022-08-21T12:36:10;101669.53;;;32.89;33.97
72689;BME280;61053;52.166;4.506;2022-08-21T12:39:01;101681.03;;;33.04;32.41
72689;BME280;61053;52.166;4.506;2022-08-21T12:41:47;101680.34;;;27.45;40.82
72689;BME280;61053;52.166;4.506;2022-08-21T12:47:27;101679.53;;;32.90;33.38
72689;BME280;61053;52.166;4.506;2022-08-21T12:50:03;101677.09;;;33.82;31.23
72689;BME280;61053;52.166;4.506;2022-08-21T12:52:51;101687.97;;;35.27;29.19
72689;BME280;61053;52.166;4.506;2022-08-21T12:55:29;101675.38;;;33.93;30.36
72689;BME280;61053;52.166;4.506;2022-08-21T12:57:56;101673.22;;;34.36;30.46
72689;BME280;61053;52.166;4.506;2022-08-21T13:00:26;101680.53;;;30.66;34.69
72689;BME280;61053;52.166;4.506;2022-08-21T13:02:53;101681.34;;;27.65;42.39
72689;BME280;61053;52.166;4.506;2022-08-21T13:05:35;101684.53;;;30.25;38.17
72689;BME280;61053;52.166;4.506;2022-08-21T13:08:07;101683.53;;;28.59;40.18
72689;BME280;61053;52.166;4.506;2022-08-21T13:10:36;101684.28;;;29.15;39.55
72689;BME280;61053;52.166;4.506;2022-08-21T13:13:10;101688.06;;;31.16;35.28
72689;BME280;61053;52.166;4.506;2022-08-21T13:15:43;101681.69;;;29.93;37.53
72689;BME280;61053;52.166;4.506;2022-08-21T13:18:20;101680.81;;;31.90;34.69
72689;BME280;61053;52.166;4.506;2022-08-21T13:20:51;101680.22;;;33.27;32.31
72689;BME280;61053;52.166;4.506;2022-08-21T13:23:37;101686.59;;;33.51;31.82
72689;BME280;61053;52.166;4.506;2022-08-21T13:26:16;101687.78;;;34.14;30.47
72689;BME280;61053;52.166;4.506;2022-08-21T13:28:45;101675.34;;;32.38;33.09
72689;BME280;61053;52.166;4.506;2022-08-21T13:31:16;101685.00;;;30.15;36.87
72689;BME280;61053;52.166;4.506;2022-08-21T13:33:48;101680.66;;;29.48;38.94
72689;BME280;61053;52.166;4.506;2022-08-21T13:36:20;101680.59;;;28.68;39.45
72689;BME280;61053;52.166;4.506;2022-08-21T13:38:52;101681.91;;;28.78;39.05
72689;BME280;61053;52.166;4.506;2022-08-21T13:41:26;101679.50;;;27.79;41.13
72689;BME280;61053;52.166;4.506;2022-08-21T13:44:05;101687.94;;;28.54;39.82
72689;BME280;61053;52.166;4.506;2022-08-21T13:46:40;101692.66;;;27.84;41.79
72689;BME280;61053;52.166;4.506;2022-08-21T13:49:06;101689.06;;;27.05;44.02
72689;BME280;61053;52.166;4.506;2022-08-21T13:51:35;101689.56;;;25.77;47.10
72689;BME280;61053;52.166;4.506;2022-08-21T13:57:24;101695.13;;;25.31;48.90
72689;BME280;61053;52.166;4.506;2022-08-21T14:00:16;101702.72;;;26.11;48.17
72689;BME280;61053;52.166;4.506;2022-08-21T14:02:46;101699.28;;;25.03;48.80
72689;BME280;61053;52.166;4.506;2022-08-21T14:05:29;101694.22;;;25.38;48.74
72689;BME280;61053;52.166;4.506;2022-08-21T14:08:11;101691.59;;;26.49;46.28
72689;BME280;61053;52.166;4.506;2022-08-21T14:10:44;101688.25;;;24.89;47.91
72689;BME280;61053;52.166;4.506;2022-08-21T14:13:47;101690.47;;;25.54;48.08